sensor_id;sensor_type;location;lat;lon;timestamp;pressure;altitude;pressure_sealevel;temperature;humidity
28310;BME280;15571;50.974;13.936;2023-08-30T00:00:42;99336.13;;;14.37;100.00
28310;BME280;15571;50.974;13.936;2023-08-30T00:03:45;99333.53;;;14.36;100.00
28310;BME280;15571;50.974;13.936;2023-08-30T00:06:48;99335.00;;;14.44;100.00
28310;BME280;15571;50.974;13.936;2023-08-30T00:09:50;99330.88;;;14.37;100.00
28310;BME280;15571;50.974;13.936;2023-08-30T00:12:52;99321.91;;;14.43;100.00
28310;BME280;15571;50.974;13.936;2023-08-30T00:15:53;99317.44;;;14.45;100.00
28310;BME280;15571;50.974;13.936;2023-08-30T00:18:55;99329.63;;;14.47;100.00
28310;BME280;15571;50.974;13.936;2023-08-30T00:22:07;99323.56;;;14.45;100.00
28310;BME280;15571;50.974;13.936;2023-08-30T00:25:09;99329.63;;;14.47;100.00
28310;BME280;15571;50.974;13.936;2023-08-30T00:28:11;99326.88;;;14.51;100.00
28310;BME280;15571;50.974;13.936;2023-08-30T00:31:16;99327.81;;;14.50;100.00
28310;BME280;15571;50.974;13.936;2023-08-30T00:34:19;99342.47;;;14.57;100.00
28310;BME280;15571;50.974;13.936;2023-08-30T00:37:23;99346.81;;;14.58;100.00
28310;BME280;15571;50.974;13.936;2023-08-30T00:40:25;99347.72;;;14.57;100.00
28310;BME280;15571;50.974;13.936;2023-08-30T00:43:29;99352.75;;;14.63;100.00
28310;BME280;15571;50.974;13.936;2023-08-30T00:46:31;99342.22;;;14.63;100.00
28310;BME280;15571;50.974;13.936;2023-08-30T00:49:34;99351.94;;;14.61;100.00
28310;BME280;15571;50.974;13.936;2023-08-30T00:52:37;99353.66;;;14.63;100.00
28310;BME280;15571;50.974;13.936;2023-08-30T00:55:41;99353.91;;;14.56;100.00
28310;BME280;15571;50.974;13.936;2023-08-30T00:58:43;99360.75;;;14.60;100.00
28310;BME280;15571;50.974;13.936;2023-08-30T01:01:45;99357.22;;;14.61;100.00
28310;BME280;15571;50.974;13.936;2023-08-30T01:04:48;99351.28;;;14.56;100.00
28310;BME280;15571;50.974;13.936;2023-08-30T01:07:56;99351.28;;;14.56;100.00
28310;BME280;15571;50.974;13.936;2023-08-30T01:11:03;99344.06;;;14.61;100.00
28310;BME280;15571;50.974;13.936;2023-08-30T01:14:07;99342.78;;;14.47;100.00
28310;BME280;15571;50.974;13.936;2023-08-30T01:17:10;99337.63;;;14.44;100.00
28310;BME280;15571;50.974;13.936;2023-08-30T01:20:17;99339.41;;;14.44;100.00
28310;BME280;15571;50.974;13.936;2023-08-30T01:23:26;99342.78;;;14.47;100.00
28310;BME280;15571;50.974;13.936;2023-08-30T01:26:38;99335.72;;;14.50;100.00
28310;BME280;15571;50.974;13.936;2023-08-30T01:29:45;99333.97;;;14.48;100.00
28310;BME280;15571;50.974;13.936;2023-08-30T01:33:03;99325.94;;;14.52;100.00
28310;BME280;15571;50.974;13.936;2023-08-30T01:36:05;99318.75;;;14.57;100.00
28310;BME280;15571;50.974;13.936;2023-08-30T01:39:08;99313.53;;;14.55;100.00
28310;BME280;15571;50.974;13.936;2023-08-30T01:42:15;99315.22;;;14.58;100.00
28310;BME280;15571;50.974;13.936;2023-08-30T01:45:23;99313.53;;;14.55;100.00
28310;BME280;15571;50.974;13.936;2023-08-30T01:48:26;99314.41;;;14.56;100.00
28310;BME280;15571;50.974;13.936;2023-08-30T01:51:31;99305.88;;;14.49;100.00
28310;BME280;15571;50.974;13.936;2023-08-30T01:54:36;99303.28;;;14.47;100.00
28310;BME280;15571;50.974;13.936;2023-08-30T01:57:39;99300.84;;;14.43;100.00
28310;BME280;15571;50.974;13.936;2023-08-30T02:00:43;99293.25;;;14.34;100.00
28310;BME280;15571;50.974;13.936;2023-08-30T02:03:45;99293.25;;;14.34;100.00
28310;BME280;15571;50.974;13.936;2023-08-30T02:06:48;99297.78;;;14.30;100.00
28310;BME280;15571;50.974;13.936;2023-08-30T02:09:57;99301.19;;;14.32;100.00
28310;BME280;15571;50.974;13.936;2023-08-30T02:13:03;99306.25;;;14.38;100.00
28310;BME280;15571;50.974;13.936;2023-08-30T02:16:08;99321.03;;;14.42;100.00
28310;BME280;15571;50.974;13.936;2023-08-30T02:19:10;99316.56;;;14.44;100.00
28310;BME280;15571;50.974;13.936;2023-08-30T02:22:12;99309.69;;;14.40;100.00
28310;BME280;15571;50.974;13.936;2023-08-30T02:25:15;99308.59;;;14.46;100.00
28310;BME280;15571;50.974;13.936;2023-08-30T02:28:17;99318.38;;;14.42;100.00
28310;BME280;15571;50.974;13.936;2023-08-30T02:31:20;99325.16;;;14.50;100.00
28310;BME280;15571;50.974;13.936;2023-08-30T02:34:22;99322.56;;;14.48;100.00
28310;BME280;15571;50.974;13.936;2023-08-30T02:37:26;99326.13;;;14.47;100.00
28310;BME280;15571;50.974;13.936;2023-08-30T02:40:28;99332.13;;;14.51;100.00
28310;BME280;15571;50.974;13.936;2023-08-30T02:43:30;99324.69;;;14.38;100.00
28310;BME280;15571;50.974;13.936;2023-08-30T02:46:33;99333.44;;;14.39;100.00
28310;BME280;15571;50.974;13.936;2023-08-30T02:49:35;99331.63;;;14.41;100.00
28310;BME280;15571;50.974;13.936;2023-08-30T02:52:36;99331.72;;;14.38;100.00
28310;BME280;15571;50.974;13.936;2023-08-30T02:55:38;99330.59;;;14.45;100.00
28310;BME280;15571;50.974;13.936;2023-08-30T02:58:40;99332.47;;;14.41;100.00
28310;BME280;15571;50.974;13.936;2023-08-30T03:01:44;99334.09;;;14.45;100.00
28310;BME280;15571;50.974;13.936;2023-08-30T03:04:48;99336.94;;;14.39;100.00
28310;BME280;15571;50.974;13.936;2023-08-30T03:07:52;99334.91;;;14.47;100.00
28310;BME280;15571;50.974;13.936;2023-08-30T03:10:56;99334.09;;;14.45;100.00
28310;BME280;15571;50.974;13.936;2023-08-30T03:13:58;99339.34;;;14.45;100.00
28310;BME280;15571;50.974;13.936;2023-08-30T03:17:01;99342.91;;;14.44;100.00
28310;BME280;15571;50.974;13.936;2023-08-30T03:20:04;99337.56;;;14.46;100.00
28310;BME280;15571;50.974;13.936;2023-08-30T03:23:05;99339.34;;;14.45;100.00
28310;BME280;15571;50.974;13.936;2023-08-30T03:26:08;99334.81;;;14.49;100.00
28310;BME280;15571;50.974;13.936;2023-08-30T03:29:12;99330.44;;;14.50;100.00
28310;BME280;15571;50.974;13.936;2023-08-30T03:32:17;99333.66;;;14.58;100.00
28310;BME280;15571;50.974;13.936;2023-08-30T03:35:22;99320.69;;;14.52;100.00
28310;BME280;15571;50.974;13.936;2023-08-30T03:38:27;99325.91;;;14.53;100.00
28310;BME280;15571;50.974;13.936;2023-08-30T03:41:29;99319.19;;;14.44;100.00
28310;BME280;15571;50.974;13.936;2023-08-30T03:44:31;99326.94;;;14.49;100.00
28310;BME280;15571;50.974;13.936;2023-08-30T03:47:34;99326.34;;;14.41;100.00
28310;BME280;15571;50.974;13.936;2023-08-30T03:50:37;99331.63;;;14.41;100.00
28310;BME280;15571;50.974;13.936;2023-08-30T03:53:44;99335.97;;;14.42;100.00
28310;BME280;15571;50.974;13.936;2023-08-30T03:56:47;99342.22;;;14.39;100.00
28310;BME280;15571;50.974;13.936;2023-08-30T03:59:49;99345.59;;;14.43;100.00
28310;BME280;15571;50.974;13.936;2023-08-30T04:02:52;99348.16;;;14.44;100.00
28310;BME280;15571;50.974;13.936;2023-08-30T04:05:54;99341.06;;;14.46;100.00
28310;BME280;15571;50.974;13.936;2023-08-30T04:08:56;99348.06;;;14.47;100.00
28310;BME280;15571;50.974;13.936;2023-08-30T04:11:58;99338.53;;;14.43;100.00
28310;BME280;15571;50.974;13.936;2023-08-30T04:15:01;99331.53;;;14.44;100.00
28310;BME280;15571;50.974;13.936;2023-08-30T04:18:05;99325.59;;;14.37;100.00
28310;BME280;15571;50.974;13.936;2023-08-30T04:21:08;99323.66;;;14.42;100.00
28310;BME280;15571;50.974;13.936;2023-08-30T04:24:09;99321.94;;;14.41;100.00
28310;BME280;15571;50.974;13.936;2023-08-30T04:27:12;99330.53;;;14.46;100.00
28310;BME280;15571;50.974;13.936;2023-08-30T04:30:14;99329.97;;;14.38;100.00
28310;BME280;15571;50.974;13.936;2023-08-30T04:33:19;99336.88;;;14.41;100.00
28310;BME280;15571;50.974;13.936;2023-08-30T04:36:21;99333.25;;;14.45;100.00
28310;BME280;15571;50.974;13.936;2023-08-30T04:39:23;99337.63;;;14.44;100.00
28310;BME280;15571;50.974;13.936;2023-08-30T04:42:26;99337.63;;;14.44;100.00
28310;BME280;15571;50.974;13.936;2023-08-30T04:45:28;99348.16;;;14.44;100.00
28310;BME280;15571;50.974;13.936;2023-08-30T04:48:32;99339.34;;;14.45;100.00
28310;BME280;15571;50.974;13.936;2023-08-30T04:51:34;99346.44;;;14.43;100.00
28310;BME280;15571;50.974;13.936;2023-08-30T04:54:37;99348.16;;;14.44;100.00
28310;BME280;15571;50.974;13.936;2023-08-30T04:57:39;99351.66;;;14.45;100.00
28310;BME280;15571;50.974;13.936;2023-08-30T05:00:47;99359.44;;;14.48;100.00
28310;BME280;15571;50.974;13.936;2023-08-30T05:03:50;99353.09;;;14.54;100.00
28310;BME280;15571;50.974;13.936;2023-08-30T05:06:53;99357.53;;;14.53;100.00
28310;BME280;15571;50.974;13.936;2023-08-30T05:09:55;99357.44;;;14.55;100.00
28310;BME280;15571;50.974;13.936;2023-08-30T05:12:57;99356.53;;;14.56;100.00
28310;BME280;15571;50.974;13.936;2023-08-30T05:16:00;99356.53;;;14.56;100.00
28310;BME280;15571;50.974;13.936;2023-08-30T05:19:04;99357.38;;;14.56;100.00
28310;BME280;15571;50.974;13.936;2023-08-30T05:22:06;99358.25;;;14.57;100.00
28310;BME280;15571;50.974;13.936;2023-08-30T05:25:09;99353.00;;;14.57;100.00
28310;BME280;15571;50.974;13.936;2023-08-30T05:28:11;99352.03;;;14.59;100.00
28310;BME280;15571;50.974;13.936;2023-08-30T05:31:15;99351.94;;;14.61;100.00
28310;BME280;15571;50.974;13.936;2023-08-30T05:34:37;99358.84;;;14.65;100.00
28310;BME280;15571;50.974;13.936;2023-08-30T05:38:02;99357.91;;;14.68;100.00
28310;BME280;15571;50.974;13.936;2023-08-30T05:41:30;99358.63;;;14.71;100.00
28310;BME280;15571;50.974;13.936;2023-08-30T05:44:32;99357.72;;;14.72;100.00
28310;BME280;15571;50.974;13.936;2023-08-30T05:47:37;99352.25;;;14.78;100.00
28310;BME280;15571;50.974;13.936;2023-08-30T05:50:41;99350.28;;;14.84;100.00
28310;BME280;15571;50.974;13.936;2023-08-30T05:53:43;99350.19;;;14.87;100.00
28310;BME280;15571;50.974;13.936;2023-08-30T05:56:45;99351.78;;;14.91;100.00
28310;BME280;15571;50.974;13.936;2023-08-30T05:59:47;99352.69;;;14.90;100.00
28310;BME280;15571;50.974;13.936;2023-08-30T06:02:48;99347.50;;;14.88;100.00
28310;BME280;15571;50.974;13.936;2023-08-30T06:05:53;99351.91;;;14.88;100.00
28310;BME280;15571;50.974;13.936;2023-08-30T06:08:55;99351.00;;;14.89;100.00
28310;BME280;15571;50.974;13.936;2023-08-30T06:11:57;99350.38;;;14.82;100.00
28310;BME280;15571;50.974;13.936;2023-08-30T06:14:59;99350.06;;;14.90;100.00
28310;BME280;15571;50.974;13.936;2023-08-30T06:18:01;99355.50;;;14.85;100.00
28310;BME280;15571;50.974;13.936;2023-08-30T06:21:05;99358.94;;;14.87;100.00
28310;BME280;15571;50.974;13.936;2023-08-30T06:24:07;99370.28;;;14.89;100.00
28310;BME280;15571;50.974;13.936;2023-08-30T06:27:09;99367.59;;;14.91;100.00
28310;BME280;15571;50.974;13.936;2023-08-30T06:30:11;99362.22;;;14.94;100.00
28310;BME280;15571;50.974;13.936;2023-08-30T06:33:13;99355.97;;;14.97;100.00
28310;BME280;15571;50.974;13.936;2023-08-30T06:36:16;99363.69;;;15.01;100.00
28310;BME280;15571;50.974;13.936;2023-08-30T06:39:18;99370.69;;;15.02;100.00
28310;BME280;15571;50.974;13.936;2023-08-30T06:42:20;99367.88;;;15.07;100.00
28310;BME280;15571;50.974;13.936;2023-08-30T06:45:24;99373.16;;;15.07;100.00
28310;BME280;15571;50.974;13.936;2023-08-30T06:48:26;99361.03;;;15.03;100.00
28310;BME280;15571;50.974;13.936;2023-08-30T06:51:29;99361.63;;;15.09;100.00
28310;BME280;15571;50.974;13.936;2023-08-30T06:54:33;99355.56;;;15.07;100.00
28310;BME280;15571;50.974;13.936;2023-08-30T06:57:35;99351.88;;;15.12;100.00
28310;BME280;15571;50.974;13.936;2023-08-30T07:00:37;99363.13;;;15.17;100.00
28310;BME280;15571;50.974;13.936;2023-08-30T07:03:39;99357.59;;;15.23;100.00
28310;BME280;15571;50.974;13.936;2023-08-30T07:06:42;99372.59;;;15.22;100.00
28310;BME280;15571;50.974;13.936;2023-08-30T07:09:44;99375.16;;;15.24;100.00
28310;BME280;15571;50.974;13.936;2023-08-30T07:12:46;99373.44;;;15.23;100.00
28310;BME280;15571;50.974;13.936;2023-08-30T07:15:49;99378.59;;;15.26;100.00
28310;BME280;15571;50.974;13.936;2023-08-30T07:18:51;99373.06;;;15.32;100.00
28310;BME280;15571;50.974;13.936;2023-08-30T07:21:54;99371.91;;;15.39;100.00
28310;BME280;15571;50.974;13.936;2023-08-30T07:24:58;99371.88;;;15.41;100.00
28310;BME280;15571;50.974;13.936;2023-08-30T07:28:00;99376.03;;;15.47;100.00
28310;BME280;15571;50.974;13.936;2023-08-30T07:31:02;99375.91;;;15.50;100.00
28310;BME280;15571;50.974;13.936;2023-08-30T07:34:04;99373.97;;;15.55;100.00
28310;BME280;15571;50.974;13.936;2023-08-30T07:37:17;99373.81;;;15.58;100.00
28310;BME280;15571;50.974;13.936;2023-08-30T07:40:21;99372.59;;;15.67;100.00
28310;BME280;15571;50.974;13.936;2023-08-30T07:43:26;99374.94;;;15.75;100.00
28310;BME280;15571;50.974;13.936;2023-08-30T07:46:30;99376.31;;;15.85;100.00
28310;BME280;15571;50.974;13.936;2023-08-30T07:49:31;99376.47;;;16.02;100.00
28310;BME280;15571;50.974;13.936;2023-08-30T07:52:35;99370.13;;;16.07;100.00
28310;BME280;15571;50.974;13.936;2023-08-30T07:55:36;99372.59;;;16.11;100.00
28310;BME280;15571;50.974;13.936;2023-08-30T07:58:40;99366.19;;;16.17;100.00
28310;BME280;15571;50.974;13.936;2023-08-30T08:01:42;99365.00;;;16.24;100.00
28310;BME280;15571;50.974;13.936;2023-08-30T08:04:44;99372.25;;;16.19;100.00
28310;BME280;15571;50.974;13.936;2023-08-30T08:07:50;99363.13;;;16.26;100.00
28310;BME280;15571;50.974;13.936;2023-08-30T08:10:52;99368.38;;;16.28;100.00
28310;BME280;15571;50.974;13.936;2023-08-30T08:13:53;99366.13;;;16.39;100.00
28310;BME280;15571;50.974;13.936;2023-08-30T08:16:55;99363.94;;;16.28;100.00
28310;BME280;15571;50.974;13.936;2023-08-30T08:20:00;99361.81;;;16.37;100.00
28310;BME280;15571;50.974;13.936;2023-08-30T08:23:03;99358.13;;;16.41;100.00
28310;BME280;15571;50.974;13.936;2023-08-30T08:26:05;99346.63;;;16.62;100.00
28310;BME280;15571;50.974;13.936;2023-08-30T08:29:08;99345.41;;;16.70;100.00
28310;BME280;15571;50.974;13.936;2023-08-30T08:32:11;99332.25;;;16.89;100.00
28310;BME280;15571;50.974;13.936;2023-08-30T08:35:13;99334.63;;;16.95;100.00
28310;BME280;15571;50.974;13.936;2023-08-30T08:38:23;99333.56;;;17.18;100.00
28310;BME280;15571;50.974;13.936;2023-08-30T08:41:25;99335.34;;;17.18;100.00
28310;BME280;15571;50.974;13.936;2023-08-30T08:44:32;99325.00;;;17.13;100.00
28310;BME280;15571;50.974;13.936;2023-08-30T08:47:34;99330.97;;;16.98;100.00
28310;BME280;15571;50.974;13.936;2023-08-30T08:50:35;99326.53;;;17.17;100.00
28310;BME280;15571;50.974;13.936;2023-08-30T08:53:39;99331.88;;;17.35;100.00
28310;BME280;15571;50.974;13.936;2023-08-30T08:56:41;99330.06;;;17.54;100.00
28310;BME280;15571;50.974;13.936;2023-08-30T08:59:42;99331.19;;;17.68;100.00
28310;BME280;15571;50.974;13.936;2023-08-30T09:02:45;99323.25;;;17.85;100.00
28310;BME280;15571;50.974;13.936;2023-08-30T09:05:47;99321.41;;;17.87;100.00
28310;BME280;15571;50.974;13.936;2023-08-30T09:08:52;99322.09;;;17.91;100.00
28310;BME280;15571;50.974;13.936;2023-08-30T09:11:54;99331.56;;;17.97;100.00
28310;BME280;15571;50.974;13.936;2023-08-30T09:14:56;99334.28;;;18.13;100.00
28310;BME280;15571;50.974;13.936;2023-08-30T09:17:57;99333.56;;;17.92;100.00
28310;BME280;15571;50.974;13.936;2023-08-30T09:21:04;99334.41;;;17.92;100.00
28310;BME280;15571;50.974;13.936;2023-08-30T09:24:10;99328.09;;;17.95;100.00
28310;BME280;15571;50.974;13.936;2023-08-30T09:27:15;99331.84;;;17.91;100.00
28310;BME280;15571;50.974;13.936;2023-08-30T09:30:21;99327.88;;;17.99;100.00
28310;BME280;15571;50.974;13.936;2023-08-30T09:33:23;99333.81;;;18.22;100.00
28310;BME280;15571;50.974;13.936;2023-08-30T09:36:25;99322.66;;;18.33;100.00
28310;BME280;15571;50.974;13.936;2023-08-30T09:39:28;99333.00;;;18.55;100.00
28310;BME280;15571;50.974;13.936;2023-08-30T09:42:32;99331.47;;;18.67;100.00
28310;BME280;15571;50.974;13.936;2023-08-30T09:45:34;99336.13;;;18.79;100.00
28310;BME280;15571;50.974;13.936;2023-08-30T09:48:37;99331.69;;;18.80;100.00
28310;BME280;15571;50.974;13.936;2023-08-30T09:51:40;99320.41;;;18.92;100.00
28310;BME280;15571;50.974;13.936;2023-08-30T09:54:45;99334.81;;;19.04;100.00
28310;BME280;15571;50.974;13.936;2023-08-30T09:57:46;99334.84;;;18.87;100.00
28310;BME280;15571;50.974;13.936;2023-08-30T10:00:50;99327.75;;;19.05;100.00
28310;BME280;15571;50.974;13.936;2023-08-30T10:03:51;99324.47;;;19.16;100.00
28310;BME280;15571;50.974;13.936;2023-08-30T10:06:54;99323.19;;;19.23;100.00
28310;BME280;15571;50.974;13.936;2023-08-30T10:09:59;99327.66;;;19.38;100.00
28310;BME280;15571;50.974;13.936;2023-08-30T10:13:01;99320.00;;;19.48;100.00
28310;BME280;15571;50.974;13.936;2023-08-30T10:16:04;99317.69;;;19.58;100.00
28310;BME280;15571;50.974;13.936;2023-08-30T10:19:07;99315.63;;;19.47;100.00
28310;BME280;15571;50.974;13.936;2023-08-30T10:22:12;99321.81;;;19.48;100.00
28310;BME280;15571;50.974;13.936;2023-08-30T10:25:19;99305.91;;;19.32;100.00
28310;BME280;15571;50.974;13.936;2023-08-30T10:28:21;99315.16;;;19.24;100.00
28310;BME280;15571;50.974;13.936;2023-08-30T10:31:24;99314.63;;;19.02;100.00
28310;BME280;15571;50.974;13.936;2023-08-30T10:34:31;99320.53;;;19.07;100.00
28310;BME280;15571;50.974;13.936;2023-08-30T10:42:26;99322.69;;;19.00;100.00
28310;BME280;15571;50.974;13.936;2023-08-30T10:45:27;99325.78;;;19.08;100.00
28310;BME280;15571;50.974;13.936;2023-08-30T10:48:34;99322.94;;;19.11;100.00
28310;BME280;15571;50.974;13.936;2023-08-30T10:51:38;99331.75;;;19.28;100.00
28310;BME280;15571;50.974;13.936;2023-08-30T10:54:44;99327.88;;;19.50;100.00
28310;BME280;15571;50.974;13.936;2023-08-30T10:57:57;99322.13;;;19.57;100.00
28310;BME280;15571;50.974;13.936;2023-08-30T11:00:59;99328.47;;;19.87;100.00
28310;BME280;15571;50.974;13.936;2023-08-30T11:04:03;99322.78;;;19.93;100.00
28310;BME280;15571;50.974;13.936;2023-08-30T11:07:05;99329.09;;;20.06;100.00
28310;BME280;15571;50.974;13.936;2023-08-30T11:10:07;99326.66;;;20.18;100.00
28310;BME280;15571;50.974;13.936;2023-08-30T11:13:15;99318.19;;;20.26;100.00
28310;BME280;15571;50.974;13.936;2023-08-30T11:16:21;99316.13;;;20.31;100.00
28310;BME280;15571;50.974;13.936;2023-08-30T11:19:22;99314.81;;;20.38;100.00
28310;BME280;15571;50.974;13.936;2023-08-30T11:22:26;99313.88;;;20.39;100.00
28310;BME280;15571;50.974;13.936;2023-08-30T11:25:30;99316.06;;;20.47;100.00
28310;BME280;15571;50.974;13.936;2023-08-30T11:28:34;99313.56;;;20.58;100.00
28310;BME280;15571;50.974;13.936;2023-08-30T11:31:36;99314.53;;;20.72;100.00
28310;BME280;15571;50.974;13.936;2023-08-30T11:34:38;99304.75;;;20.58;100.00
28310;BME280;15571;50.974;13.936;2023-08-30T11:37:41;99306.94;;;20.36;100.00
28310;BME280;15571;50.974;13.936;2023-08-30T11:40:43;99313.09;;;20.23;100.00
28310;BME280;15571;50.974;13.936;2023-08-30T11:43:47;99307.34;;;20.14;100.00
28310;BME280;15571;50.974;13.936;2023-08-30T11:46:49;99302.47;;;20.23;100.00
28310;BME280;15571;50.974;13.936;2023-08-30T11:49:53;99293.16;;;20.30;100.00
28310;BME280;15571;50.974;13.936;2023-08-30T11:52:56;99295.53;;;20.34;100.00
28310;BME280;15571;50.974;13.936;2023-08-30T11:55:58;99293.72;;;20.35;100.00
28310;BME280;15571;50.974;13.936;2023-08-30T11:59:02;99298.19;;;20.34;100.00
28310;BME280;15571;50.974;13.936;2023-08-30T12:02:04;99301.50;;;20.24;100.00
28310;BME280;15571;50.974;13.936;2023-08-30T12:05:10;99299.88;;;20.21;100.00
28310;BME280;15571;50.974;13.936;2023-08-30T12:08:17;99288.31;;;20.22;100.00
28310;BME280;15571;50.974;13.936;2023-08-30T12:11:22;99290.69;;;20.12;100.00
28310;BME280;15571;50.974;13.936;2023-08-30T12:14:33;99279.34;;;19.94;100.00
28310;BME280;15571;50.974;13.936;2023-08-30T12:17:35;99271.38;;;19.94;100.00
28310;BME280;15571;50.974;13.936;2023-08-30T12:20:37;99268.53;;;19.97;100.00
28310;BME280;15571;50.974;13.936;2023-08-30T12:34:36;99253.69;;;19.79;100.00
28310;BME280;15571;50.974;13.936;2023-08-30T12:41:48;99254.16;;;19.55;100.00
28310;BME280;15571;50.974;13.936;2023-08-30T12:49:48;99254.34;;;19.52;100.00
28310;BME280;15571;50.974;13.936;2023-08-30T13:20:08;99225.00;;;19.69;100.00
28310;BME280;15571;50.974;13.936;2023-08-30T13:37:25;99227.34;;;19.90;100.00
28310;BME280;15571;50.974;13.936;2023-08-30T13:41:13;99222.25;;;19.87;100.00
28310;BME280;15571;50.974;13.936;2023-08-30T13:44:25;99215.00;;;19.89;100.00
28310;BME280;15571;50.974;13.936;2023-08-30T13:48:15;99222.56;;;19.81;100.00
28310;BME280;15571;50.974;13.936;2023-08-30T13:51:48;99216.38;;;19.96;100.00
28310;BME280;15571;50.974;13.936;2023-08-30T13:55:38;99212.00;;;19.95;100.00
28310;BME280;15571;50.974;13.936;2023-08-30T13:59:12;99205.34;;;20.02;100.00
28310;BME280;15571;50.974;13.936;2023-08-30T14:02:30;99204.03;;;19.95;100.00
28310;BME280;15571;50.974;13.936;2023-08-30T14:05:53;99211.06;;;19.96;100.00
28310;BME280;15571;50.974;13.936;2023-08-30T14:09:02;99200.72;;;20.06;100.00
28310;BME280;15571;50.974;13.936;2023-08-30T14:21:14;99200.03;;;20.31;100.00
28310;BME280;15571;50.974;13.936;2023-08-30T14:24:58;99201.28;;;20.26;100.00
28310;BME280;15571;50.974;13.936;2023-08-30T14:32:12;99194.91;;;20.28;100.00
28310;BME280;15571;50.974;13.936;2023-08-30T14:40:32;99193.00;;;20.59;100.00
28310;BME280;15571;50.974;13.936;2023-08-30T14:44:07;99187.31;;;20.65;100.00
28310;BME280;15571;50.974;13.936;2023-08-30T14:51:33;99181.97;;;20.65;100.00
28310;BME280;15571;50.974;13.936;2023-08-30T15:02:23;99188.09;;;20.24;100.00
28310;BME280;15571;50.974;13.936;2023-08-30T15:05:25;99178.88;;;20.15;100.00
28310;BME280;15571;50.974;13.936;2023-08-30T15:08:29;99176.34;;;20.14;100.00
28310;BME280;15571;50.974;13.936;2023-08-30T15:11:31;99183.94;;;20.05;100.00
28310;BME280;15571;50.974;13.936;2023-08-30T15:14:34;99181.75;;;19.98;100.00
28310;BME280;15571;50.974;13.936;2023-08-30T15:17:37;99193.97;;;20.00;100.00
28310;BME280;15571;50.974;13.936;2023-08-30T15:20:39;99197.00;;;19.94;100.00
28310;BME280;15571;50.974;13.936;2023-08-30T15:23:41;99191.81;;;19.93;100.00
28310;BME280;15571;50.974;13.936;2023-08-30T15:26:43;99198.91;;;19.92;100.00
28310;BME280;15571;50.974;13.936;2023-08-30T15:29:47;99194.25;;;19.96;100.00
28310;BME280;15571;50.974;13.936;2023-08-30T15:32:53;99194.91;;;19.99;100.00
28310;BME280;15571;50.974;13.936;2023-08-30T15:35:57;99187.72;;;20.01;100.00
28310;BME280;15571;50.974;13.936;2023-08-30T15:39:01;99190.47;;;20.00;100.00
28310;BME280;15571;50.974;13.936;2023-08-30T15:42:05;99195.59;;;20.03;100.00
28310;BME280;15571;50.974;13.936;2023-08-30T15:45:10;99199.09;;;20.03;100.00
28310;BME280;15571;50.974;13.936;2023-08-30T15:48:14;99203.66;;;20.01;100.00
28310;BME280;15571;50.974;13.936;2023-08-30T15:51:17;99197.28;;;20.04;100.00
28310;BME280;15571;50.974;13.936;2023-08-30T15:54:19;99197.78;;;20.11;100.00
28310;BME280;15571;50.974;13.936;2023-08-30T15:57:21;99195.69;;;20.16;100.00
28310;BME280;15571;50.974;13.936;2023-08-30T16:00:23;99197.19;;;20.20;100.00
28310;BME280;15571;50.974;13.936;2023-08-30T16:03:28;99200.81;;;20.19;100.00
28310;BME280;15571;50.974;13.936;2023-08-30T16:06:30;99197.84;;;20.24;100.00
28310;BME280;15571;50.974;13.936;2023-08-30T16:09:32;99194.91;;;20.28;100.00
28310;BME280;15571;50.974;13.936;2023-08-30T16:12:35;99196.56;;;20.31;100.00
28310;BME280;15571;50.974;13.936;2023-08-30T16:15:37;99198.34;;;20.30;100.00
28310;BME280;15571;50.974;13.936;2023-08-30T16:18:41;99196.63;;;20.29;100.00
28310;BME280;15571;50.974;13.936;2023-08-30T16:21:43;99189.81;;;20.25;100.00
28310;BME280;15571;50.974;13.936;2023-08-30T16:24:45;99196.53;;;20.16;100.00
28310;BME280;15571;50.974;13.936;2023-08-30T16:27:47;99198.63;;;20.11;100.00
28310;BME280;15571;50.974;13.936;2023-08-30T16:30:49;99200.03;;;20.02;100.00
28310;BME280;15571;50.974;13.936;2023-08-30T16:33:53;99190.47;;;20.00;100.00
28310;BME280;15571;50.974;13.936;2023-08-30T16:36:58;99198.78;;;19.94;100.00
28310;BME280;15571;50.974;13.936;2023-08-30T16:40:00;99197.41;;;19.88;100.00
28310;BME280;15571;50.974;13.936;2023-08-30T16:43:02;99202.84;;;19.85;100.00
28310;BME280;15571;50.974;13.936;2023-08-30T16:46:04;99203.22;;;19.79;100.00
28310;BME280;15571;50.974;13.936;2023-08-30T16:49:07;99200.91;;;19.72;100.00
28310;BME280;15571;50.974;13.936;2023-08-30T16:52:11;99205.00;;;19.64;100.00
28310;BME280;15571;50.974;13.936;2023-08-30T16:55:13;99200.03;;;19.57;100.00
28310;BME280;15571;50.974;13.936;2023-08-30T16:58:17;99197.94;;;19.48;100.00
28310;BME280;15571;50.974;13.936;2023-08-30T17:01:19;99199.13;;;19.42;100.00
28310;BME280;15571;50.974;13.936;2023-08-30T17:04:22;99195.13;;;19.35;100.00
28310;BME280;15571;50.974;13.936;2023-08-30T17:07:25;99201.66;;;19.29;100.00
28310;BME280;15571;50.974;13.936;2023-08-30T17:10:27;99196.03;;;19.20;100.00
28310;BME280;15571;50.974;13.936;2023-08-30T17:13:29;99201.78;;;19.12;100.00
28310;BME280;15571;50.974;13.936;2023-08-30T17:16:32;99206.47;;;19.07;100.00
28310;BME280;15571;50.974;13.936;2023-08-30T17:19:38;99203.41;;;18.98;100.00
28310;BME280;15571;50.974;13.936;2023-08-30T17:22:42;99208.97;;;18.94;100.00
28310;BME280;15571;50.974;13.936;2023-08-30T17:25:44;99208.38;;;18.89;100.00
28310;BME280;15571;50.974;13.936;2023-08-30T17:28:46;99208.63;;;18.84;100.00